Airfield :
LOGIN :

Register | Disclaimer

   EN    FR    IT 

 










Legend :    VFR   Marginal VFR   IFR   Intensive IFR   Very Intensive IFR
Visi :
Ceiling :
>= 8 km
>= 3000ft
5 to 8 km
1000 to 3000 ft
1500m to 5 km
500 to 1000 ft
800 to 1500m
200 to 500 ft
< 800m
< 200 ft
Symbols :   Thunderstorms  Fog  Heavy snow  Heavy precipitations  Wind > 20 kt
SIGMETs :     Misc.  Thunderstorms  Icing  Turbulence  Mountain Waves  Volcanic Ashes







- Airport Elevation : 529 ft
- IATA code : CHR
- Download approach charts


LFLX - Chateauroux

CURRENT METAR :
  • 152230Z AUTO 08004KT CAVOK 15/09 Q1014 NOSIG

EXPIRED METARs :
  • 152200Z AUTO 11003KT 060V150 CAVOK 16/09 Q1014 NOSIG
  • 152130Z AUTO 13005KT CAVOK 17/09 Q1013 NOSIG
  • 152100Z AUTO 14009KT CAVOK 18/10 Q1013 NOSIG
  • 152030Z AUTO 13007KT CAVOK 17/10 Q1013 NOSIG
  • 152000Z AUTO 11007KT CAVOK 17/10 Q1013 NOSIG

TAF TAF LFLX
Valid from the 15 at 18:00 until the 17 at 00:00 UTC


151700Z 1518/1624 14010KT CAVOK
TEMPO 1518/1521 15010G20KT
BECMG 1521/1524 14003KT
BECMG 1609/1612 20005KT
BECMG 1613/1616 32005KT
No reported NOTAMs for that airfield.



MET'MAP, your aeronautical weather chart ! - Copyright ORBIFLY December 2007 - Disclaimer

ORBIFLY MET'MAP TEAM :

Programming & Development : Alexandra Zaïnal
Concept & Development : Baudouin d'Aumeries
Co-Development & Prog : Marc-Olivier Méhu
Technical & hardware support : Manuel Goepfert

Contact : metmap@orbifly.com




SOURCES & CREDITS :

   NOAA